Star Clipper — 9HA2513 — position and weather

sailwx.info

Track history (hours):
 
Tides and Currents Weather Stations Pressure Air Temp Water Temp Dewpoint Dewpoint Depression Visibility Wind Speed Wind Dir Waves Ship Positions

Star Clipper

Last reported at 2019-Oct-16 01:01 UTC. Time now 2019-Oct-17 17:37 UTC.
Position N 05°52' E 115°50'.

Length 111 m; draft 5.9 m.

Type: Other ship. MMSI: 248786000.

Date/timePositionNaut miles runAvg speedWind from/ knotsBaromVisibWave heightAir tempDewpointWater temp
2019-Oct-16 01:01N 05°52' E 115°50'3 1.5
2019-Oct-15 22:56N 05°53' E 115°53'0 0.8
2019-Oct-15 22:20N 05°53' E 115°53'0 0.6
2019-Oct-15 21:56N 05°53' E 115°53'1 0.6
2019-Oct-15 21:08N 05°53' E 115°54'0 0.9
2019-Oct-15 20:56N 05°54' E 115°54'1 0.9
2019-Oct-15 20:20N 05°54' E 115°54'0 0.8
2019-Oct-15 19:56N 05°54' E 115°55'9 5.7
2019-Oct-15 18:26N 06°02' E 115°57'3 1.1
2019-Oct-15 16:02N 06°04' E 115°59'1 1.1
2019-Oct-15 15:20N 06°04' E 115°60'3 6.8
2019-Oct-15 14:56N 06°03' E 116°02'3 5.7
2019-Oct-15 14:26N 06°02' E 116°04'2 3.7
2019-Oct-15 13:56N 05°60' E 116°05'0 0.0
2019-Oct-15 13:26N 05°60' E 116°05'0 0.0
2019-Oct-15 12:56N 05°60' E 116°05'0 0.0
2019-Oct-15 12:26N 05°60' E 116°05'0 0.0
2019-Oct-15 11:56N 05°60' E 116°05'0 0.0
2019-Oct-15 11:26N 05°60' E 116°05'0 0.0
2019-Oct-15 10:56N 05°60' E 116°05'0 0.0
2019-Oct-15 10:26N 05°60' E 116°05'0 0.0
2019-Oct-15 09:56N 05°60' E 116°05'0 0.0
2019-Oct-15 09:26N 05°60' E 116°05'0 0.0
2019-Oct-15 08:56N 05°60' E 116°05'0 0.0
2019-Oct-15 08:26N 05°60' E 116°05'0 0.0
2019-Oct-15 07:56N 05°60' E 116°05'0 0.0
2019-Oct-15 07:26N 05°60' E 116°05'0 0.0
2019-Oct-15 06:50N 05°60' E 116°05'0 0.0
2019-Oct-15 06:26N 05°60' E 116°05'0 0.0
2019-Oct-15 05:56N 05°60' E 116°05'0 0.0
2019-Oct-15 05:14N 05°60' E 116°05'0 0.1
2019-Oct-15 04:44N 05°60' E 116°05'0 0.2
2019-Oct-15 04:26N 05°60' E 116°05'0 0.0
2019-Oct-15 03:44N 05°60' E 116°05'0 0.0
2019-Oct-15 03:26N 05°60' E 116°05'0 0.0
2019-Oct-15 02:56N 05°60' E 116°05'0 0.0
2019-Oct-15 02:26N 05°60' E 116°05'0 0.0
2019-Oct-15 01:56N 05°60' E 116°05'0 0.0
2019-Oct-15 01:26N 05°60' E 116°05'0 0.0
2019-Oct-15 00:56N 05°60' E 116°05'0 0.0
2019-Oct-15 00:26N 05°60' E 116°05'0 0.0
2019-Oct-14 23:56N 05°60' E 116°05'0 0.0
2019-Oct-14 23:26N 05°60' E 116°05'0 0.0
2019-Oct-14 22:56N 05°60' E 116°05'0 0.3
2019-Oct-14 22:26N 05°60' E 116°05'2 3.5
2019-Oct-14 21:50N 06°02' E 116°04'3 5.4
2019-Oct-14 21:20N 06°03' E 116°02'3 5.0
2019-Oct-14 20:38N 06°01' E 115°59'2 6.0
2019-Oct-14 20:14N 05°60' E 115°57'2 6.0
2019-Oct-14 19:56N 05°58' E 115°56'3 6.0
2019-Oct-14 19:26N 05°56' E 115°54'2 3.5
2019-Oct-14 18:44N 05°54' E 115°52'0 0.6
2019-Oct-14 18:14N 05°54' E 115°52'0 0.6
2019-Oct-14 17:56N 05°54' E 115°52'0 0.7
2019-Oct-14 17:26N 05°53' E 115°52'  
Track history (hours):
 
Tides and Currents Weather Stations Pressure Air Temp Water Temp Dewpoint Dewpoint Depression Visibility Wind Speed Wind Dir Waves Ship Positions

Star Clipper

Last reported at 2019-Oct-16 01:01 UTC. Time now 2019-Oct-17 17:37 UTC.
Position N 05°52' E 115°50'.

Length 111 m; draft 5.9 m.

Type: Other ship. MMSI: 248786000.

Date/timePositionNaut miles runAvg speedWind from/ knotsBaromVisibWave heightAir tempDewpointWater temp
2019-Oct-16 01:01N 05°52' E 115°50'3 1.5
2019-Oct-15 22:56N 05°53' E 115°53'0 0.8
2019-Oct-15 22:20N 05°53' E 115°53'0 0.6
2019-Oct-15 21:56N 05°53' E 115°53'1 0.6
2019-Oct-15 21:08N 05°53' E 115°54'0 0.9
2019-Oct-15 20:56N 05°54' E 115°54'1 0.9
2019-Oct-15 20:20N 05°54' E 115°54'0 0.8
2019-Oct-15 19:56N 05°54' E 115°55'9 5.7
2019-Oct-15 18:26N 06°02' E 115°57'3 1.1
2019-Oct-15 16:02N 06°04' E 115°59'1 1.1
2019-Oct-15 15:20N 06°04' E 115°60'3 6.8
2019-Oct-15 14:56N 06°03' E 116°02'3 5.7
2019-Oct-15 14:26N 06°02' E 116°04'2 3.7
2019-Oct-15 13:56N 05°60' E 116°05'0 0.0
2019-Oct-15 13:26N 05°60' E 116°05'0 0.0
2019-Oct-15 12:56N 05°60' E 116°05'0 0.0
2019-Oct-15 12:26N 05°60' E 116°05'0 0.0
2019-Oct-15 11:56N 05°60' E 116°05'0 0.0
2019-Oct-15 11:26N 05°60' E 116°05'0 0.0
2019-Oct-15 10:56N 05°60' E 116°05'0 0.0
2019-Oct-15 10:26N 05°60' E 116°05'0 0.0
2019-Oct-15 09:56N 05°60' E 116°05'0 0.0
2019-Oct-15 09:26N 05°60' E 116°05'0 0.0
2019-Oct-15 08:56N 05°60' E 116°05'0 0.0
2019-Oct-15 08:26N 05°60' E 116°05'0 0.0
2019-Oct-15 07:56N 05°60' E 116°05'0 0.0
2019-Oct-15 07:26N 05°60' E 116°05'0 0.0
2019-Oct-15 06:50N 05°60' E 116°05'0 0.0
2019-Oct-15 06:26N 05°60' E 116°05'0 0.0
2019-Oct-15 05:56N 05°60' E 116°05'0 0.0
2019-Oct-15 05:14N 05°60' E 116°05'0 0.1
2019-Oct-15 04:44N 05°60' E 116°05'0 0.2
2019-Oct-15 04:26N 05°60' E 116°05'0 0.0
2019-Oct-15 03:44N 05°60' E 116°05'0 0.0
2019-Oct-15 03:26N 05°60' E 116°05'0 0.0
2019-Oct-15 02:56N 05°60' E 116°05'0 0.0
2019-Oct-15 02:26N 05°60' E 116°05'0 0.0
2019-Oct-15 01:56N 05°60' E 116°05'0 0.0
2019-Oct-15 01:26N 05°60' E 116°05'0 0.0
2019-Oct-15 00:56N 05°60' E 116°05'0 0.0
2019-Oct-15 00:26N 05°60' E 116°05'0 0.0
2019-Oct-14 23:56N 05°60' E 116°05'0 0.0
2019-Oct-14 23:26N 05°60' E 116°05'0 0.0
2019-Oct-14 22:56N 05°60' E 116°05'0 0.3
2019-Oct-14 22:26N 05°60' E 116°05'2 3.5
2019-Oct-14 21:50N 06°02' E 116°04'3 5.4
2019-Oct-14 21:20N 06°03' E 116°02'3 5.0
2019-Oct-14 20:38N 06°01' E 115°59'2 6.0
2019-Oct-14 20:14N 05°60' E 115°57'2 6.0
2019-Oct-14 19:56N 05°58' E 115°56'3 6.0
2019-Oct-14 19:26N 05°56' E 115°54'2 3.5
2019-Oct-14 18:44N 05°54' E 115°52'0 0.6
2019-Oct-14 18:14N 05°54' E 115°52'0 0.6
2019-Oct-14 17:56N 05°54' E 115°52'0 0.7
2019-Oct-14 17:26N 05°53' E 115°52'  

Dump ship's entire track history